createdAt,value
2017-11-30T00:00:57.223Z,23.85
2017-11-30T00:03:24.688Z,26.87
2017-11-30T00:05:52.160Z,22.35
2017-11-30T00:08:20.402Z,25.58
2017-11-30T00:10:47.886Z,23.55
2017-11-30T00:13:16.119Z,22.40
2017-11-30T00:15:43.594Z,22.58
2017-11-30T00:18:11.050Z,23.80
2017-11-30T00:20:38.514Z,19.70
2017-11-30T00:23:06.069Z,27.60
2017-11-30T00:25:33.626Z,27.60
2017-11-30T00:28:01.192Z,23.35
2017-11-30T00:30:29.635Z,27.23
2017-11-30T00:32:57.115Z,28.02
2017-11-30T00:35:24.592Z,29.45
2017-11-30T00:37:52.144Z,26.10
2017-11-30T00:40:19.704Z,24.90
2017-11-30T00:42:59.144Z,23.40
2017-11-30T00:45:26.692Z,22.65
2017-11-30T00:47:54.156Z,20.95
2017-11-30T00:50:21.707Z,26.00
2017-11-30T00:52:49.184Z,23.12
2017-11-30T00:55:17.411Z,25.33
2017-11-30T00:57:44.892Z,24.63
2017-11-30T01:00:12.370Z,25.75
2017-11-30T01:02:40.600Z,26.60
2017-11-30T01:05:08.067Z,23.67
2017-11-30T01:07:35.534Z,31.92
2017-11-30T01:10:03.108Z,23.98
2017-11-30T01:12:30.571Z,27.80
2017-11-30T01:14:58.808Z,21.80
2017-11-30T01:17:26.270Z,24.42
2017-11-30T01:19:53.741Z,23.77
2017-11-30T01:22:21.271Z,26.62
2017-11-30T01:24:48.743Z,27.17
2017-11-30T01:27:16.211Z,23.33
2017-11-30T01:29:43.684Z,24.25
2017-11-30T01:32:11.236Z,22.48
2017-11-30T01:34:38.715Z,26.73
2017-11-30T01:37:06.954Z,27.45
2017-11-30T01:39:34.529Z,25.48
2017-11-30T01:42:01.993Z,24.48
2017-11-30T01:44:30.238Z,28.27
2017-11-30T01:46:57.713Z,28.25
2017-11-30T01:49:25.271Z,30.92
2017-11-30T01:51:52.829Z,25.12
2017-11-30T01:54:20.383Z,28.90
2017-11-30T01:56:47.939Z,28.00
2017-11-30T01:59:15.504Z,23.27
2017-11-30T02:01:43.063Z,25.98
2017-11-30T02:04:10.530Z,24.37
2017-11-30T02:06:38.092Z,26.05
2017-11-30T02:09:05.638Z,25.50
2017-11-30T02:11:33.104Z,22.33
2017-11-30T02:14:00.650Z,23.17
2017-11-30T02:16:28.129Z,24.95
2017-11-30T02:18:56.356Z,25.85
2017-11-30T02:21:23.819Z,32.05
2017-11-30T02:23:51.278Z,24.20
2017-11-30T02:26:18.747Z,24.42
2017-11-30T02:28:46.224Z,37.58
2017-11-30T02:31:13.782Z,22.95
2017-11-30T02:33:41.256Z,26.75
2017-11-30T02:36:09.519Z,28.33
2017-11-30T02:38:36.984Z,25.45
2017-11-30T02:41:05.219Z,29.37
2017-11-30T02:43:32.704Z,26.60
2017-11-30T02:46:00.174Z,26.62
2017-11-30T02:48:28.412Z,29.25
2017-11-30T02:50:55.878Z,31.60
2017-11-30T02:53:23.349Z,28.67
2017-11-30T02:55:51.578Z,26.30
2017-11-30T02:58:19.041Z,27.75
2017-11-30T03:00:46.502Z,30.08
2017-11-30T03:03:13.970Z,28.15
2017-11-30T03:05:41.447Z,29.27
2017-11-30T03:08:08.899Z,30.40
2017-11-30T03:10:36.455Z,31.08
2017-11-30T03:13:04.011Z,25.67
2017-11-30T03:15:31.570Z,26.65
2017-11-30T03:17:59.031Z,25.10
2017-11-30T03:20:26.494Z,25.92
2017-11-30T03:22:53.959Z,24.17
2017-11-30T03:25:22.205Z,25.25
2017-11-30T03:27:49.658Z,26.62
2017-11-30T03:30:17.127Z,31.58
2017-11-30T03:32:44.578Z,35.05
2017-11-30T03:35:12.052Z,24.87
2017-11-30T03:37:39.523Z,26.20
2017-11-30T03:40:07.753Z,23.45
2017-11-30T03:42:35.229Z,31.80
2017-11-30T03:45:02.790Z,33.83
2017-11-30T03:47:30.303Z,32.95
2017-11-30T03:49:57.820Z,27.67
2017-11-30T03:52:25.287Z,29.98
2017-11-30T03:54:54.190Z,31.58
2017-11-30T03:57:21.718Z,26.55
2017-11-30T03:59:49.281Z,31.50
2017-11-30T04:02:16.748Z,29.75
2017-11-30T04:04:44.987Z,27.60
2017-11-30T04:07:12.458Z,31.02
2017-11-30T04:09:39.919Z,30.12
2017-11-30T04:12:07.470Z,27.15
2017-11-30T04:14:34.939Z,34.17
2017-11-30T04:17:02.408Z,29.25
2017-11-30T04:19:30.671Z,33.03
2017-11-30T04:21:58.138Z,37.85
2017-11-30T04:24:26.379Z,29.12
2017-11-30T04:26:53.849Z,30.20
2017-11-30T04:29:21.409Z,34.53
2017-11-30T04:31:48.870Z,31.85
2017-11-30T04:34:16.333Z,23.90
2017-11-30T04:36:44.590Z,33.50
2017-11-30T04:39:12.056Z,32.55
2017-11-30T04:41:39.521Z,32.80
2017-11-30T04:44:07.134Z,38.97
2017-11-30T04:46:34.712Z,32.30
2017-11-30T04:49:02.321Z,29.33
2017-11-30T04:51:30.670Z,33.83
2017-11-30T04:53:58.135Z,26.92
2017-11-30T04:56:25.589Z,29.15
2017-11-30T04:58:53.052Z,27.23
2017-11-30T05:01:20.510Z,27.10
2017-11-30T05:03:47.971Z,29.52
2017-11-30T05:06:16.236Z,31.70
2017-11-30T05:08:45.206Z,29.12
2017-11-30T05:11:12.779Z,31.40
2017-11-30T05:13:41.039Z,27.37
2017-11-30T05:16:08.514Z,28.92
2017-11-30T05:18:35.967Z,31.62
2017-11-30T05:21:03.440Z,28.90
2017-11-30T05:23:31.708Z,28.65
2017-11-30T05:25:59.195Z,33.53
2017-11-30T05:28:26.659Z,33.58
2017-11-30T05:30:54.170Z,37.03
2017-11-30T05:33:21.734Z,36.53
2017-11-30T05:35:49.295Z,31.37
2017-11-30T05:38:16.844Z,29.23
2017-11-30T05:40:44.314Z,35.72
2017-11-30T05:43:11.778Z,35.10
2017-11-30T05:45:40.016Z,30.70
2017-11-30T05:48:07.496Z,30.58
2017-11-30T05:50:34.952Z,35.47
2017-11-30T05:53:02.432Z,35.13
2017-11-30T05:55:30.660Z,29.55
2017-11-30T05:57:58.129Z,33.30
2017-11-30T06:00:25.592Z,30.20
2017-11-30T06:02:53.075Z,34.42
2017-11-30T06:05:21.298Z,35.03
2017-11-30T06:07:48.778Z,38.85
2017-11-30T06:10:16.344Z,35.92
2017-11-30T06:12:43.812Z,30.05
2017-11-30T06:15:11.280Z,32.17
2017-11-30T06:17:39.502Z,28.08
2017-11-30T06:20:06.976Z,32.03
2017-11-30T06:22:34.442Z,33.80
2017-11-30T06:25:01.917Z,31.30
2017-11-30T06:27:30.178Z,34.75
2017-11-30T06:29:57.762Z,31.02
2017-11-30T06:32:25.202Z,34.88
2017-11-30T06:34:52.678Z,29.12
2017-11-30T06:37:20.142Z,35.42
2017-11-30T06:39:47.710Z,38.67
2017-11-30T06:42:15.171Z,32.40
2017-11-30T06:44:42.666Z,30.12
2017-11-30T06:47:10.267Z,34.03
2017-11-30T06:49:38.498Z,31.58
2017-11-30T06:52:05.962Z,35.25
2017-11-30T06:54:33.426Z,31.42
2017-11-30T06:57:00.907Z,34.38
2017-11-30T06:59:29.156Z,37.75
2017-11-30T07:01:56.617Z,34.28
2017-11-30T07:04:24.079Z,36.05
2017-11-30T07:06:51.564Z,33.42
2017-11-30T07:09:19.092Z,31.35
2017-11-30T07:11:46.550Z,36.47
2017-11-30T07:14:14.110Z,35.00
2017-11-30T07:16:41.582Z,32.03
2017-11-30T07:19:12.377Z,37.20
2017-11-30T07:21:39.877Z,32.38
2017-11-30T07:24:07.406Z,35.60
2017-11-30T07:26:34.862Z,33.72
2017-11-30T07:29:02.335Z,33.58
2017-11-30T07:31:29.880Z,31.95
2017-11-30T07:33:57.342Z,34.38
2017-11-30T07:36:24.895Z,31.75
2017-11-30T07:38:52.511Z,36.28
2017-11-30T07:41:19.988Z,35.50
2017-11-30T07:43:47.458Z,33.30
2017-11-30T07:46:14.935Z,35.83
2017-11-30T07:48:42.396Z,33.20
2017-11-30T07:51:09.864Z,34.35
2017-11-30T07:53:38.089Z,35.95
2017-11-30T07:56:05.555Z,37.83
2017-11-30T07:58:33.043Z,39.88
2017-11-30T08:01:02.804Z,34.33
2017-11-30T08:03:30.270Z,37.17
2017-11-30T08:05:57.745Z,34.60
2017-11-30T08:08:25.314Z,36.78
2017-11-30T08:10:52.866Z,27.80
2017-11-30T08:13:20.383Z,28.92
2017-11-30T08:15:47.858Z,37.17
2017-11-30T08:18:15.346Z,25.92
2017-11-30T08:20:42.908Z,30.65
2017-11-30T08:23:10.486Z,44.67
2017-11-30T08:25:38.726Z,34.30
2017-11-30T08:28:06.195Z,34.92
2017-11-30T08:30:33.660Z,32.05
2017-11-30T08:33:01.211Z,34.47
2017-11-30T08:35:28.706Z,29.25
2017-11-30T08:37:56.179Z,34.88
2017-11-30T08:40:23.646Z,35.00
2017-11-30T08:42:51.117Z,35.53
2017-11-30T08:45:18.591Z,32.83
2017-11-30T08:47:46.291Z,34.88
2017-11-30T08:50:13.915Z,33.60
2017-11-30T08:52:41.398Z,29.65
2017-11-30T08:55:09.652Z,34.30
2017-11-30T08:57:37.205Z,28.25
2017-11-30T09:00:04.665Z,31.02
2017-11-30T09:02:32.177Z,35.60
2017-11-30T09:04:59.695Z,31.60
2017-11-30T09:07:27.945Z,31.80
2017-11-30T09:09:55.414Z,41.13
2017-11-30T09:12:22.878Z,33.63
2017-11-30T09:14:50.481Z,31.77
2017-11-30T09:17:17.939Z,38.35
2017-11-30T09:19:45.803Z,31.77
2017-11-30T09:22:13.325Z,42.22
2017-11-30T09:24:41.967Z,34.10
2017-11-30T09:27:10.277Z,36.15
2017-11-30T09:29:37.738Z,33.13
2017-11-30T09:32:05.302Z,39.65
2017-11-30T09:34:33.559Z,31.73
2017-11-30T09:37:01.057Z,33.83
2017-11-30T09:39:28.530Z,36.53
2017-11-30T09:41:56.037Z,32.53
2017-11-30T09:44:23.501Z,34.97
2017-11-30T09:46:52.147Z,28.27
2017-11-30T09:49:19.615Z,34.05
2017-11-30T09:51:47.074Z,34.90
2017-11-30T09:54:14.620Z,26.45
2017-11-30T09:56:42.090Z,28.50
2017-11-30T09:59:09.587Z,24.00
2017-11-30T10:01:37.064Z,25.58
2017-11-30T10:04:04.541Z,26.85
2017-11-30T10:06:32.493Z,24.05
2017-11-30T10:08:59.997Z,25.60
2017-11-30T10:11:27.611Z,22.58
2017-11-30T10:13:55.136Z,28.80
2017-11-30T10:16:23.532Z,31.42
2017-11-30T10:18:51.052Z,27.98
2017-11-30T10:21:18.610Z,25.48
2017-11-30T10:23:46.090Z,22.85
2017-11-30T10:26:14.342Z,30.15
2017-11-30T10:28:41.799Z,34.40
2017-11-30T10:31:09.282Z,30.70
2017-11-30T10:33:37.506Z,27.65
2017-11-30T10:36:05.018Z,31.80
2017-11-30T10:38:32.565Z,30.08
2017-11-30T10:41:00.833Z,28.20
2017-11-30T10:43:28.435Z,31.80
2017-11-30T10:45:55.946Z,30.10
2017-11-30T10:48:23.418Z,31.10
2017-11-30T10:50:51.719Z,31.33
2017-11-30T10:53:19.186Z,26.77
2017-11-30T10:55:46.656Z,34.55
2017-11-30T10:58:14.123Z,28.95
2017-11-30T11:00:41.711Z,24.25
2017-11-30T11:03:09.183Z,25.75
2017-11-30T11:05:37.410Z,31.30
2017-11-30T11:08:04.879Z,30.58
2017-11-30T11:10:32.350Z,31.55
2017-11-30T11:12:59.931Z,31.23
2017-11-30T11:15:28.194Z,28.30
2017-11-30T11:17:55.748Z,30.27
2017-11-30T11:20:23.316Z,27.83
2017-11-30T11:22:51.571Z,27.92
2017-11-30T11:25:19.068Z,25.70
2017-11-30T11:27:46.530Z,28.83
2017-11-30T11:30:14.011Z,33.90
2017-11-30T11:32:41.469Z,29.95
2017-11-30T11:35:08.939Z,25.50
2017-11-30T11:37:36.407Z,24.17
2017-11-30T11:40:03.975Z,27.17
2017-11-30T11:42:31.536Z,26.65
2017-11-30T11:44:59.094Z,23.90
2017-11-30T11:47:26.650Z,22.08
2017-11-30T11:49:54.139Z,30.20
2017-11-30T11:52:22.367Z,26.00
2017-11-30T11:54:49.879Z,29.10
2017-11-30T11:57:17.339Z,25.80
2017-11-30T11:59:44.806Z,28.83
2017-11-30T12:02:12.311Z,23.55
2017-11-30T12:04:39.779Z,33.03
2017-11-30T12:07:07.318Z,29.33
2017-11-30T12:09:34.840Z,33.78
2017-11-30T12:12:02.334Z,25.90
2017-11-30T12:14:29.894Z,30.83
2017-11-30T12:16:57.414Z,29.87
2017-11-30T12:19:24.882Z,21.85
2017-11-30T12:21:52.345Z,22.67
2017-11-30T12:24:19.825Z,21.92
2017-11-30T12:26:47.384Z,18.95
2017-11-30T12:29:15.037Z,21.95
2017-11-30T12:31:43.228Z,28.40
2017-11-30T12:34:10.842Z,26.83
2017-11-30T12:36:38.333Z,23.67
2017-11-30T12:39:05.805Z,20.73
2017-11-30T12:41:33.273Z,27.27
2017-11-30T12:44:01.515Z,23.80
2017-11-30T12:46:29.042Z,27.98
2017-11-30T12:48:56.516Z,27.50
2017-11-30T12:51:23.974Z,33.33
2017-11-30T12:53:51.449Z,29.15
2017-11-30T12:56:18.927Z,30.90
2017-11-30T12:58:46.392Z,30.85
2017-11-30T13:01:14.629Z,28.17
2017-11-30T13:03:42.092Z,32.20
2017-11-30T13:06:09.635Z,33.20
2017-11-30T13:08:37.226Z,31.58
2017-11-30T13:11:04.729Z,30.15
2017-11-30T13:13:32.189Z,30.75
2017-11-30T13:15:59.678Z,34.67
2017-11-30T13:18:27.137Z,36.22
2017-11-30T13:20:54.708Z,34.83
2017-11-30T13:23:22.164Z,37.47
2017-11-30T13:25:49.638Z,30.05
2017-11-30T13:28:17.915Z,38.83
2017-11-30T13:30:46.147Z,31.27
2017-11-30T13:33:13.607Z,36.60
2017-11-30T13:35:41.087Z,38.30
2017-11-30T13:38:08.545Z,33.78
2017-11-30T13:40:36.051Z,30.83
2017-11-30T13:43:03.611Z,29.33
2017-11-30T13:45:31.109Z,32.28
2017-11-30T13:47:58.625Z,31.12
2017-11-30T13:50:26.125Z,41.70
2017-11-30T13:52:53.701Z,39.28
2017-11-30T13:55:21.961Z,31.70
2017-11-30T13:57:50.957Z,33.78
2017-11-30T14:00:18.426Z,29.75
2017-11-30T14:02:46.748Z,28.98
2017-11-30T14:05:14.210Z,34.38
2017-11-30T14:07:41.690Z,35.42
2017-11-30T14:10:09.143Z,33.85
2017-11-30T14:12:36.704Z,39.63
2017-11-30T14:15:04.178Z,42.03
2017-11-30T14:17:31.754Z,38.55
2017-11-30T14:20:00.038Z,33.45
2017-11-30T14:22:28.301Z,38.30
2017-11-30T14:24:55.814Z,37.00
2017-11-30T14:27:23.257Z,39.50
2017-11-30T14:29:50.730Z,38.08
2017-11-30T14:32:18.268Z,40.45
2017-11-30T14:34:45.742Z,35.95
2017-11-30T14:37:13.230Z,41.35
2017-11-30T14:39:40.710Z,36.80
2017-11-30T14:42:08.976Z,41.25
2017-11-30T14:44:36.466Z,47.75
2017-11-30T14:47:03.925Z,36.13
2017-11-30T14:49:31.386Z,43.75
2017-11-30T14:51:58.864Z,46.08
2017-11-30T14:54:26.346Z,44.58
2017-11-30T14:56:53.928Z,50.80
2017-11-30T14:59:22.295Z,47.42
2017-11-30T15:01:49.758Z,47.83
2017-11-30T15:04:18.027Z,47.40
2017-11-30T15:06:45.521Z,44.15
2017-11-30T15:09:13.041Z,45.70
2017-11-30T15:11:40.597Z,46.00
2017-11-30T15:14:08.065Z,43.08
2017-11-30T15:16:36.317Z,46.55
2017-11-30T15:19:03.823Z,39.22
2017-11-30T15:21:31.373Z,49.47
2017-11-30T15:23:59.638Z,48.67
2017-11-30T15:26:27.899Z,47.90
2017-11-30T15:28:55.370Z,45.12
2017-11-30T15:31:23.596Z,47.25
2017-11-30T15:33:51.069Z,42.15
2017-11-30T15:36:18.537Z,44.25
2017-11-30T15:38:46.088Z,51.85
2017-11-30T15:41:13.606Z,43.58
2017-11-30T15:43:41.091Z,47.45
2017-11-30T15:46:08.580Z,52.78
2017-11-30T15:48:36.820Z,51.35
2017-11-30T15:51:04.297Z,37.92
2017-11-30T15:53:31.794Z,39.63
2017-11-30T15:55:59.325Z,41.80
2017-11-30T15:58:27.597Z,42.90
2017-11-30T16:00:55.264Z,42.30
2017-11-30T16:03:22.752Z,52.05
2017-11-30T16:05:50.319Z,49.70
2017-11-30T16:08:17.796Z,45.20
2017-11-30T16:10:45.295Z,41.33
2017-11-30T16:13:12.838Z,46.90
2017-11-30T16:15:40.309Z,47.55
2017-11-30T16:18:07.798Z,48.47
2017-11-30T16:20:35.260Z,41.65
2017-11-30T16:23:02.773Z,49.80
2017-11-30T16:25:30.347Z,36.53
2017-11-30T16:27:58.584Z,34.85
2017-11-30T16:30:26.059Z,41.42
2017-11-30T16:32:53.642Z,44.50
2017-11-30T16:35:21.869Z,40.00
2017-11-30T16:37:49.328Z,42.25
2017-11-30T16:40:16.909Z,34.42
2017-11-30T16:42:44.464Z,39.95
2017-11-30T16:45:12.020Z,44.35
2017-11-30T16:47:39.481Z,39.35
2017-11-30T16:50:06.949Z,42.72
2017-11-30T16:52:35.200Z,41.83
2017-11-30T16:55:02.653Z,40.88
2017-11-30T16:57:30.115Z,35.55
2017-11-30T16:59:57.573Z,36.13
2017-11-30T17:02:25.137Z,48.87
2017-11-30T17:04:52.606Z,46.67
2017-11-30T17:07:20.870Z,38.47
2017-11-30T17:09:49.835Z,37.53
2017-11-30T17:12:17.305Z,41.75
2017-11-30T17:14:44.769Z,38.83
2017-11-30T17:17:12.241Z,38.42
2017-11-30T17:19:39.700Z,45.03
2017-11-30T17:22:07.190Z,39.85
2017-11-30T17:24:34.660Z,37.83
2017-11-30T17:27:02.178Z,36.90
2017-11-30T17:29:30.446Z,46.88
2017-11-30T17:31:57.913Z,49.70
2017-11-30T17:34:26.191Z,52.03
2017-11-30T17:36:53.612Z,44.50
2017-11-30T17:39:21.092Z,44.17
2017-11-30T17:41:48.686Z,37.95
2017-11-30T17:44:16.161Z,38.70
2017-11-30T17:46:43.621Z,41.65
2017-11-30T17:49:11.127Z,39.17
2017-11-30T17:51:39.370Z,35.50
2017-11-30T17:54:06.901Z,34.78
2017-11-30T17:56:34.370Z,34.08
2017-11-30T17:59:01.856Z,34.65
2017-11-30T18:01:29.318Z,37.85
2017-11-30T18:03:56.783Z,38.10
2017-11-30T18:06:25.748Z,39.15
2017-11-30T18:08:53.279Z,32.88
2017-11-30T18:11:21.632Z,35.08
2017-11-30T18:13:49.113Z,34.88
2017-11-30T18:16:16.604Z,37.13
2017-11-30T18:18:44.065Z,38.08
2017-11-30T18:21:11.532Z,38.13
2017-11-30T18:23:39.111Z,37.25
2017-11-30T18:26:07.346Z,37.00
2017-11-30T18:28:34.810Z,38.70
2017-11-30T18:31:02.273Z,31.87
2017-11-30T18:33:29.762Z,36.63
2017-11-30T18:35:58.002Z,36.72
2017-11-30T18:38:25.461Z,38.75
2017-11-30T18:40:52.941Z,39.22
2017-11-30T18:43:21.168Z,41.85
2017-11-30T18:45:48.639Z,38.03
2017-11-30T18:48:16.103Z,36.22
2017-11-30T18:50:43.565Z,38.72
2017-11-30T18:53:12.560Z,43.10
2017-11-30T18:55:40.117Z,38.00
2017-11-30T18:58:07.580Z,38.08
2017-11-30T19:00:35.059Z,31.40
2017-11-30T19:03:03.298Z,36.30
2017-11-30T19:05:30.873Z,40.80
2017-11-30T19:07:58.436Z,44.00
2017-11-30T19:10:25.892Z,41.70
2017-11-30T19:12:53.442Z,44.40
2017-11-30T19:15:20.900Z,42.22
2017-11-30T19:17:48.455Z,39.72
2017-11-30T19:20:16.017Z,44.60
2017-11-30T19:22:43.480Z,42.97
2017-11-30T19:25:11.723Z,44.58
2017-11-30T19:27:39.223Z,42.10
2017-11-30T19:30:07.470Z,48.35
2017-11-30T19:32:34.988Z,43.40
2017-11-30T19:35:02.452Z,42.97
2017-11-30T19:37:30.030Z,39.00
2017-11-30T19:39:57.514Z,45.22
2017-11-30T19:42:24.974Z,45.40
2017-11-30T19:44:52.521Z,43.92
2017-11-30T19:47:19.985Z,47.55
2017-11-30T19:49:47.449Z,40.88
2017-11-30T19:52:14.992Z,44.78
2017-11-30T19:54:42.503Z,44.17
2017-11-30T19:57:09.962Z,43.63
2017-11-30T19:59:37.465Z,42.13
2017-11-30T20:02:05.084Z,45.35
2017-11-30T20:04:32.594Z,47.30
2017-11-30T20:07:00.049Z,43.13
2017-11-30T20:09:27.606Z,48.78
2017-11-30T20:11:55.077Z,43.83
2017-11-30T20:14:23.309Z,45.25
2017-11-30T20:16:50.831Z,39.83
2017-11-30T20:19:18.467Z,39.47
2017-11-30T20:21:46.727Z,39.10
2017-11-30T20:24:14.185Z,46.28
2017-11-30T20:26:41.693Z,41.13
2017-11-30T20:29:09.158Z,55.08
2017-11-30T20:31:36.628Z,55.80
2017-11-30T20:34:04.168Z,44.92
2017-11-30T20:36:31.649Z,51.67
2017-11-30T20:38:59.108Z,45.88
2017-11-30T20:41:26.608Z,38.65
2017-11-30T20:43:54.839Z,48.65
2017-11-30T20:46:22.302Z,52.08
2017-11-30T20:48:49.793Z,55.45
2017-11-30T20:51:18.055Z,58.05
2017-11-30T20:53:45.615Z,47.00
2017-11-30T20:56:13.116Z,51.72
2017-11-30T20:58:40.581Z,50.58
2017-11-30T21:01:08.040Z,44.25
2017-11-30T21:03:35.566Z,50.42
2017-11-30T21:06:03.793Z,53.53
2017-11-30T21:08:31.257Z,60.35
2017-11-30T21:10:58.834Z,47.53
2017-11-30T21:13:26.341Z,50.53
2017-11-30T21:15:53.811Z,44.65
2017-11-30T21:18:21.308Z,51.67
2017-11-30T21:20:49.536Z,47.45
2017-11-30T21:23:17.006Z,54.70
2017-11-30T21:25:44.472Z,50.67
2017-11-30T21:28:11.942Z,49.03
2017-11-30T21:30:39.404Z,46.13
2017-11-30T21:33:06.876Z,47.80
2017-11-30T21:35:35.107Z,52.47
2017-11-30T21:38:02.596Z,54.05
2017-11-30T21:40:30.059Z,46.20
2017-11-30T21:42:58.376Z,52.72
2017-11-30T21:45:25.886Z,46.33
2017-11-30T21:47:53.351Z,46.45
2017-11-30T21:50:21.598Z,48.63
2017-11-30T21:52:49.069Z,43.20
2017-11-30T21:55:16.520Z,49.00
2017-11-30T21:57:43.994Z,43.17
2017-11-30T22:00:12.256Z,41.83
2017-11-30T22:02:39.816Z,53.10
2017-11-30T22:05:07.278Z,43.17
2017-11-30T22:07:34.760Z,44.17
2017-11-30T22:10:02.999Z,36.88
2017-11-30T22:12:30.472Z,37.83
2017-11-30T22:14:58.728Z,44.72
2017-11-30T22:17:26.192Z,39.30
2017-11-30T22:19:53.662Z,39.88
2017-11-30T22:22:21.925Z,37.28
2017-11-30T22:24:49.490Z,41.22
2017-11-30T22:27:16.977Z,34.63
2017-11-30T22:29:44.492Z,38.60
2017-11-30T22:32:11.965Z,36.00
2017-11-30T22:34:39.521Z,35.17
2017-11-30T22:37:07.073Z,33.83
2017-11-30T22:39:34.549Z,33.90
2017-11-30T22:42:02.857Z,35.10
2017-11-30T22:44:30.360Z,32.45
2017-11-30T22:46:58.593Z,34.47
2017-11-30T22:49:26.111Z,37.75
2017-11-30T22:51:54.390Z,38.50
2017-11-30T22:54:22.622Z,39.33
2017-11-30T22:56:50.090Z,32.67
2017-11-30T22:59:17.568Z,37.35
2017-11-30T23:01:45.137Z,36.65
2017-11-30T23:04:13.537Z,38.22
2017-11-30T23:06:41.006Z,41.88
2017-11-30T23:09:08.474Z,34.47
2017-11-30T23:11:35.930Z,35.50
2017-11-30T23:14:03.421Z,41.63
2017-11-30T23:16:30.977Z,37.03
2017-11-30T23:18:58.441Z,33.45
2017-11-30T23:21:25.912Z,37.33
2017-11-30T23:23:54.149Z,38.67
2017-11-30T23:26:21.681Z,35.42
2017-11-30T23:28:49.185Z,35.78
2017-11-30T23:31:17.418Z,39.75
2017-11-30T23:33:44.894Z,40.12
2017-11-30T23:36:12.365Z,37.22
2017-11-30T23:38:39.937Z,38.63
2017-11-30T23:41:07.415Z,39.58
2017-11-30T23:43:35.649Z,37.47
2017-11-30T23:46:03.118Z,35.47
2017-11-30T23:48:30.677Z,36.20
2017-11-30T23:50:58.144Z,37.22
2017-11-30T23:53:25.612Z,43.67
2017-11-30T23:55:53.912Z,43.15
2017-11-30T23:58:21.373Z,34.83
